sensor_id;sensor_type;location;lat;lon;timestamp;P1;durP1;ratioP1;P2;durP2;ratioP2
13415;SDS011;6779;50.150;8.680;2023-05-23T00:00:30;35.63;;;27.30;;
13415;SDS011;6779;50.150;8.680;2023-05-23T00:02:57;35.63;;;29.23;;
13415;SDS011;6779;50.150;8.680;2023-05-23T00:05:24;35.70;;;29.23;;
13415;SDS011;6779;50.150;8.680;2023-05-23T00:07:50;42.20;;;29.90;;
13415;SDS011;6779;50.150;8.680;2023-05-23T00:10:16;37.77;;;27.40;;
13415;SDS011;6779;50.150;8.680;2023-05-23T00:12:41;34.57;;;29.73;;
13415;SDS011;6779;50.150;8.680;2023-05-23T00:15:07;35.53;;;28.60;;
13415;SDS011;6779;50.150;8.680;2023-05-23T00:17:33;38.40;;;28.40;;
13415;SDS011;6779;50.150;8.680;2023-05-23T00:20:01;38.60;;;30.73;;
13415;SDS011;6779;50.150;8.680;2023-05-23T00:22:26;33.97;;;28.47;;
13415;SDS011;6779;50.150;8.680;2023-05-23T00:24:52;34.27;;;28.70;;
13415;SDS011;6779;50.150;8.680;2023-05-23T00:27:17;32.40;;;28.43;;
13415;SDS011;6779;50.150;8.680;2023-05-23T00:29:42;33.83;;;27.13;;
13415;SDS011;6779;50.150;8.680;2023-05-23T00:32:08;31.93;;;26.73;;
13415;SDS011;6779;50.150;8.680;2023-05-23T00:34:33;31.43;;;26.77;;
13415;SDS011;6779;50.150;8.680;2023-05-23T00:36:58;29.03;;;24.40;;
13415;SDS011;6779;50.150;8.680;2023-05-23T00:39:24;29.37;;;25.70;;
13415;SDS011;6779;50.150;8.680;2023-05-23T00:41:49;29.90;;;26.07;;
13415;SDS011;6779;50.150;8.680;2023-05-23T00:44:15;28.80;;;24.97;;
13415;SDS011;6779;50.150;8.680;2023-05-23T00:46:41;31.90;;;26.07;;
13415;SDS011;6779;50.150;8.680;2023-05-23T00:49:08;32.43;;;25.00;;
13415;SDS011;6779;50.150;8.680;2023-05-23T00:51:33;30.30;;;25.87;;
13415;SDS011;6779;50.150;8.680;2023-05-23T00:53:59;31.83;;;25.40;;
13415;SDS011;6779;50.150;8.680;2023-05-23T00:56:25;29.60;;;26.07;;
13415;SDS011;6779;50.150;8.680;2023-05-23T00:58:50;29.53;;;25.77;;
13415;SDS011;6779;50.150;8.680;2023-05-23T01:01:16;32.03;;;27.43;;
13415;SDS011;6779;50.150;8.680;2023-05-23T01:03:41;30.27;;;26.17;;
13415;SDS011;6779;50.150;8.680;2023-05-23T01:06:09;30.93;;;26.77;;
13415;SDS011;6779;50.150;8.680;2023-05-23T01:08:35;30.33;;;26.63;;
13415;SDS011;6779;50.150;8.680;2023-05-23T01:11:00;29.67;;;26.47;;
13415;SDS011;6779;50.150;8.680;2023-05-23T01:13:46;31.87;;;26.57;;
13415;SDS011;6779;50.150;8.680;2023-05-23T01:16:18;31.97;;;27.50;;
13415;SDS011;6779;50.150;8.680;2023-05-23T01:19:09;30.90;;;27.43;;
13415;SDS011;6779;50.150;8.680;2023-05-23T01:21:47;35.10;;;27.50;;
13415;SDS011;6779;50.150;8.680;2023-05-23T01:24:21;30.30;;;26.50;;
13415;SDS011;6779;50.150;8.680;2023-05-23T01:29:33;29.67;;;26.43;;
13415;SDS011;6779;50.150;8.680;2023-05-23T01:32:09;30.47;;;27.13;;
13415;SDS011;6779;50.150;8.680;2023-05-23T01:34:36;31.03;;;25.97;;
13415;SDS011;6779;50.150;8.680;2023-05-23T01:37:02;30.83;;;26.00;;
13415;SDS011;6779;50.150;8.680;2023-05-23T01:39:32;30.77;;;25.33;;
13415;SDS011;6779;50.150;8.680;2023-05-23T01:41:57;28.57;;;25.47;;
13415;SDS011;6779;50.150;8.680;2023-05-23T01:44:22;29.30;;;25.80;;
13415;SDS011;6779;50.150;8.680;2023-05-23T01:46:48;29.57;;;26.37;;
13415;SDS011;6779;50.150;8.680;2023-05-23T01:49:13;32.03;;;26.27;;
13415;SDS011;6779;50.150;8.680;2023-05-23T01:51:40;27.87;;;24.50;;
13415;SDS011;6779;50.150;8.680;2023-05-23T01:54:05;28.50;;;24.87;;
13415;SDS011;6779;50.150;8.680;2023-05-23T01:56:31;27.50;;;24.60;;
13415;SDS011;6779;50.150;8.680;2023-05-23T01:58:57;29.27;;;25.93;;
13415;SDS011;6779;50.150;8.680;2023-05-23T02:01:22;29.97;;;24.50;;
13415;SDS011;6779;50.150;8.680;2023-05-23T02:03:48;31.30;;;27.30;;
13415;SDS011;6779;50.150;8.680;2023-05-23T02:06:13;28.80;;;24.40;;
13415;SDS011;6779;50.150;8.680;2023-05-23T02:08:38;31.30;;;26.00;;
13415;SDS011;6779;50.150;8.680;2023-05-23T02:11:04;30.63;;;26.03;;
13415;SDS011;6779;50.150;8.680;2023-05-23T02:13:29;32.07;;;27.23;;
13415;SDS011;6779;50.150;8.680;2023-05-23T02:15:55;28.67;;;25.57;;
13415;SDS011;6779;50.150;8.680;2023-05-23T02:18:20;30.67;;;25.87;;
13415;SDS011;6779;50.150;8.680;2023-05-23T02:20:45;29.53;;;25.77;;
13415;SDS011;6779;50.150;8.680;2023-05-23T02:23:10;28.57;;;24.47;;
13415;SDS011;6779;50.150;8.680;2023-05-23T02:25:36;30.67;;;26.87;;
13415;SDS011;6779;50.150;8.680;2023-05-23T02:28:01;29.33;;;26.23;;
13415;SDS011;6779;50.150;8.680;2023-05-23T02:30:26;28.37;;;25.30;;
13415;SDS011;6779;50.150;8.680;2023-05-23T02:32:52;27.97;;;24.87;;
13415;SDS011;6779;50.150;8.680;2023-05-23T02:35:17;27.87;;;24.47;;
13415;SDS011;6779;50.150;8.680;2023-05-23T02:37:42;25.33;;;22.70;;
13415;SDS011;6779;50.150;8.680;2023-05-23T02:40:08;25.10;;;22.47;;
13415;SDS011;6779;50.150;8.680;2023-05-23T02:42:34;24.00;;;21.43;;
13415;SDS011;6779;50.150;8.680;2023-05-23T02:44:59;25.80;;;21.63;;
13415;SDS011;6779;50.150;8.680;2023-05-23T02:47:25;24.70;;;21.00;;
13415;SDS011;6779;50.150;8.680;2023-05-23T02:49:50;22.13;;;19.87;;
13415;SDS011;6779;50.150;8.680;2023-05-23T02:52:16;26.13;;;21.63;;
13415;SDS011;6779;50.150;8.680;2023-05-23T02:54:41;21.03;;;18.93;;
13415;SDS011;6779;50.150;8.680;2023-05-23T02:57:06;21.47;;;18.40;;
13415;SDS011;6779;50.150;8.680;2023-05-23T02:59:32;20.60;;;18.43;;
13415;SDS011;6779;50.150;8.680;2023-05-23T03:01:57;20.37;;;17.03;;
13415;SDS011;6779;50.150;8.680;2023-05-23T03:04:23;18.33;;;15.80;;
13415;SDS011;6779;50.150;8.680;2023-05-23T03:06:48;18.10;;;16.27;;
13415;SDS011;6779;50.150;8.680;2023-05-23T03:09:14;17.53;;;15.70;;
13415;SDS011;6779;50.150;8.680;2023-05-23T03:11:40;17.03;;;15.27;;
13415;SDS011;6779;50.150;8.680;2023-05-23T03:14:06;16.50;;;14.63;;
13415;SDS011;6779;50.150;8.680;2023-05-23T03:16:31;17.27;;;14.90;;
13415;SDS011;6779;50.150;8.680;2023-05-23T03:18:57;16.03;;;14.40;;
13415;SDS011;6779;50.150;8.680;2023-05-23T03:21:22;17.20;;;15.00;;
13415;SDS011;6779;50.150;8.680;2023-05-23T03:23:47;15.73;;;14.23;;
13415;SDS011;6779;50.150;8.680;2023-05-23T03:26:14;15.60;;;13.93;;
13415;SDS011;6779;50.150;8.680;2023-05-23T03:28:39;15.50;;;13.90;;
13415;SDS011;6779;50.150;8.680;2023-05-23T03:31:04;15.43;;;13.80;;
13415;SDS011;6779;50.150;8.680;2023-05-23T03:33:30;16.80;;;14.73;;
13415;SDS011;6779;50.150;8.680;2023-05-23T03:35:55;16.00;;;14.40;;
13415;SDS011;6779;50.150;8.680;2023-05-23T03:38:21;15.37;;;13.40;;
13415;SDS011;6779;50.150;8.680;2023-05-23T03:40:46;12.70;;;11.40;;
13415;SDS011;6779;50.150;8.680;2023-05-23T03:43:12;13.83;;;11.40;;
13415;SDS011;6779;50.150;8.680;2023-05-23T03:45:37;15.03;;;11.40;;
13415;SDS011;6779;50.150;8.680;2023-05-23T03:48:02;12.53;;;10.50;;
13415;SDS011;6779;50.150;8.680;2023-05-23T03:50:28;12.03;;;10.70;;
13415;SDS011;6779;50.150;8.680;2023-05-23T03:52:53;11.37;;;9.70;;
13415;SDS011;6779;50.150;8.680;2023-05-23T03:55:19;11.47;;;10.30;;
13415;SDS011;6779;50.150;8.680;2023-05-23T03:57:48;11.87;;;10.67;;
13415;SDS011;6779;50.150;8.680;2023-05-23T04:00:15;11.63;;;10.43;;
13415;SDS011;6779;50.150;8.680;2023-05-23T04:02:40;12.47;;;10.57;;
13415;SDS011;6779;50.150;8.680;2023-05-23T04:05:06;11.83;;;9.80;;
13415;SDS011;6779;50.150;8.680;2023-05-23T04:07:32;11.90;;;10.60;;
13415;SDS011;6779;50.150;8.680;2023-05-23T04:10:00;14.03;;;11.80;;
13415;SDS011;6779;50.150;8.680;2023-05-23T04:12:26;12.17;;;10.90;;
13415;SDS011;6779;50.150;8.680;2023-05-23T04:14:51;14.87;;;12.60;;
13415;SDS011;6779;50.150;8.680;2023-05-23T04:17:16;14.50;;;13.00;;
13415;SDS011;6779;50.150;8.680;2023-05-23T04:19:42;16.30;;;13.43;;
13415;SDS011;6779;50.150;8.680;2023-05-23T04:22:08;15.07;;;13.50;;
13415;SDS011;6779;50.150;8.680;2023-05-23T04:24:33;15.97;;;13.77;;
13415;SDS011;6779;50.150;8.680;2023-05-23T04:26:58;17.43;;;13.73;;
13415;SDS011;6779;50.150;8.680;2023-05-23T04:29:24;14.77;;;13.17;;
13415;SDS011;6779;50.150;8.680;2023-05-23T04:31:50;15.30;;;13.73;;
13415;SDS011;6779;50.150;8.680;2023-05-23T04:34:15;19.30;;;14.53;;
13415;SDS011;6779;50.150;8.680;2023-05-23T04:36:41;17.83;;;14.80;;
13415;SDS011;6779;50.150;8.680;2023-05-23T04:39:08;19.97;;;14.93;;
13415;SDS011;6779;50.150;8.680;2023-05-23T04:41:34;19.03;;;15.47;;
13415;SDS011;6779;50.150;8.680;2023-05-23T04:44:00;16.87;;;15.07;;
13415;SDS011;6779;50.150;8.680;2023-05-23T04:46:25;20.23;;;17.30;;
13415;SDS011;6779;50.150;8.680;2023-05-23T04:48:51;20.70;;;18.50;;
13415;SDS011;6779;50.150;8.680;2023-05-23T04:51:17;21.43;;;19.13;;
13415;SDS011;6779;50.150;8.680;2023-05-23T04:53:45;23.10;;;20.60;;
13415;SDS011;6779;50.150;8.680;2023-05-23T04:56:10;22.20;;;19.70;;
13415;SDS011;6779;50.150;8.680;2023-05-23T04:58:36;22.23;;;18.93;;
13415;SDS011;6779;50.150;8.680;2023-05-23T05:01:01;21.80;;;19.50;;
13415;SDS011;6779;50.150;8.680;2023-05-23T05:03:26;22.37;;;19.93;;
13415;SDS011;6779;50.150;8.680;2023-05-23T05:05:52;21.90;;;19.70;;
13415;SDS011;6779;50.150;8.680;2023-05-23T05:08:17;22.63;;;20.33;;
13415;SDS011;6779;50.150;8.680;2023-05-23T05:10:44;21.63;;;19.37;;
13415;SDS011;6779;50.150;8.680;2023-05-23T05:13:09;22.83;;;20.37;;
13415;SDS011;6779;50.150;8.680;2023-05-23T05:15:35;22.03;;;19.77;;
13415;SDS011;6779;50.150;8.680;2023-05-23T05:18:00;22.17;;;19.97;;
13415;SDS011;6779;50.150;8.680;2023-05-23T05:20:25;22.33;;;19.93;;
13415;SDS011;6779;50.150;8.680;2023-05-23T05:22:54;20.67;;;18.50;;
13415;SDS011;6779;50.150;8.680;2023-05-23T05:25:21;20.10;;;17.77;;
13415;SDS011;6779;50.150;8.680;2023-05-23T05:27:47;18.13;;;16.23;;
13415;SDS011;6779;50.150;8.680;2023-05-23T05:30:12;17.27;;;15.40;;
13415;SDS011;6779;50.150;8.680;2023-05-23T05:32:37;18.90;;;17.00;;
13415;SDS011;6779;50.150;8.680;2023-05-23T05:35:03;18.90;;;16.87;;
13415;SDS011;6779;50.150;8.680;2023-05-23T05:37:28;19.30;;;17.10;;
13415;SDS011;6779;50.150;8.680;2023-05-23T05:39:54;15.77;;;14.07;;
13415;SDS011;6779;50.150;8.680;2023-05-23T05:42:20;17.43;;;14.30;;
13415;SDS011;6779;50.150;8.680;2023-05-23T05:44:48;16.27;;;14.57;;
13415;SDS011;6779;50.150;8.680;2023-05-23T05:47:13;16.37;;;14.33;;
13415;SDS011;6779;50.150;8.680;2023-05-23T05:49:39;16.90;;;13.30;;
13415;SDS011;6779;50.150;8.680;2023-05-23T05:52:05;14.73;;;13.07;;
13415;SDS011;6779;50.150;8.680;2023-05-23T05:54:31;14.63;;;13.13;;
13415;SDS011;6779;50.150;8.680;2023-05-23T05:56:56;16.03;;;13.53;;
13415;SDS011;6779;50.150;8.680;2023-05-23T05:59:22;14.30;;;12.80;;
13415;SDS011;6779;50.150;8.680;2023-05-23T06:01:47;13.43;;;12.13;;
13415;SDS011;6779;50.150;8.680;2023-05-23T06:04:15;13.70;;;12.30;;
13415;SDS011;6779;50.150;8.680;2023-05-23T06:06:40;13.07;;;11.87;;
13415;SDS011;6779;50.150;8.680;2023-05-23T06:09:05;13.87;;;12.47;;
13415;SDS011;6779;50.150;8.680;2023-05-23T06:11:31;14.80;;;13.40;;
13415;SDS011;6779;50.150;8.680;2023-05-23T06:13:56;14.00;;;12.60;;
13415;SDS011;6779;50.150;8.680;2023-05-23T06:16:21;13.20;;;11.80;;
13415;SDS011;6779;50.150;8.680;2023-05-23T06:18:47;13.63;;;12.27;;
13415;SDS011;6779;50.150;8.680;2023-05-23T06:21:12;15.20;;;12.53;;
13415;SDS011;6779;50.150;8.680;2023-05-23T06:23:37;12.80;;;11.53;;
13415;SDS011;6779;50.150;8.680;2023-05-23T06:26:02;12.93;;;11.70;;
13415;SDS011;6779;50.150;8.680;2023-05-23T06:28:31;12.77;;;11.50;;
13415;SDS011;6779;50.150;8.680;2023-05-23T06:30:57;12.03;;;10.87;;
13415;SDS011;6779;50.150;8.680;2023-05-23T06:33:22;13.20;;;11.90;;
13415;SDS011;6779;50.150;8.680;2023-05-23T06:35:47;13.87;;;12.47;;
13415;SDS011;6779;50.150;8.680;2023-05-23T06:38:13;13.43;;;12.13;;
13415;SDS011;6779;50.150;8.680;2023-05-23T06:40:38;11.90;;;10.70;;
13415;SDS011;6779;50.150;8.680;2023-05-23T06:43:03;11.50;;;10.30;;
13415;SDS011;6779;50.150;8.680;2023-05-23T06:45:29;10.83;;;9.80;;
13415;SDS011;6779;50.150;8.680;2023-05-23T06:47:54;10.77;;;9.67;;
13415;SDS011;6779;50.150;8.680;2023-05-23T06:50:19;10.07;;;9.07;;
13415;SDS011;6779;50.150;8.680;2023-05-23T06:52:45;10.70;;;9.70;;
13415;SDS011;6779;50.150;8.680;2023-05-23T06:55:13;10.53;;;9.50;;
13415;SDS011;6779;50.150;8.680;2023-05-23T06:57:42;10.50;;;9.50;;
13415;SDS011;6779;50.150;8.680;2023-05-23T07:00:08;11.03;;;9.93;;
13415;SDS011;6779;50.150;8.680;2023-05-23T07:02:34;8.30;;;7.50;;
13415;SDS011;6779;50.150;8.680;2023-05-23T07:04:59;8.33;;;7.20;;
13415;SDS011;6779;50.150;8.680;2023-05-23T07:07:24;9.20;;;8.30;;
13415;SDS011;6779;50.150;8.680;2023-05-23T07:09:50;8.43;;;7.73;;
13415;SDS011;6779;50.150;8.680;2023-05-23T07:12:15;7.87;;;7.17;;
13415;SDS011;6779;50.150;8.680;2023-05-23T07:14:40;9.20;;;7.50;;
13415;SDS011;6779;50.150;8.680;2023-05-23T07:17:06;8.70;;;7.90;;
13415;SDS011;6779;50.150;8.680;2023-05-23T07:19:31;7.60;;;6.90;;
13415;SDS011;6779;50.150;8.680;2023-05-23T07:21:56;7.37;;;6.67;;
13415;SDS011;6779;50.150;8.680;2023-05-23T07:24:22;7.33;;;6.70;;
13415;SDS011;6779;50.150;8.680;2023-05-23T07:26:47;5.70;;;5.20;;
13415;SDS011;6779;50.150;8.680;2023-05-23T07:29:12;5.73;;;4.90;;
13415;SDS011;6779;50.150;8.680;2023-05-23T07:31:38;7.13;;;4.90;;
13415;SDS011;6779;50.150;8.680;2023-05-23T07:34:03;5.50;;;5.00;;
13415;SDS011;6779;50.150;8.680;2023-05-23T07:36:28;4.93;;;4.53;;
13415;SDS011;6779;50.150;8.680;2023-05-23T07:38:57;5.30;;;4.77;;
13415;SDS011;6779;50.150;8.680;2023-05-23T07:41:23;5.77;;;5.23;;
13415;SDS011;6779;50.150;8.680;2023-05-23T07:43:48;5.30;;;4.90;;
13415;SDS011;6779;50.150;8.680;2023-05-23T07:46:13;5.17;;;4.70;;
13415;SDS011;6779;50.150;8.680;2023-05-23T07:48:39;5.80;;;5.30;;
13415;SDS011;6779;50.150;8.680;2023-05-23T07:51:04;5.43;;;4.93;;
13415;SDS011;6779;50.150;8.680;2023-05-23T07:53:29;6.17;;;5.47;;
13415;SDS011;6779;50.150;8.680;2023-05-23T07:55:55;6.23;;;5.63;;
13415;SDS011;6779;50.150;8.680;2023-05-23T07:58:20;5.70;;;5.20;;
13415;SDS011;6779;50.150;8.680;2023-05-23T08:00:47;6.07;;;4.90;;
13415;SDS011;6779;50.150;8.680;2023-05-23T08:03:12;5.90;;;4.97;;
13415;SDS011;6779;50.150;8.680;2023-05-23T08:05:38;5.70;;;5.20;;
13415;SDS011;6779;50.150;8.680;2023-05-23T08:08:03;6.13;;;5.63;;
13415;SDS011;6779;50.150;8.680;2023-05-23T08:10:28;6.23;;;5.73;;
13415;SDS011;6779;50.150;8.680;2023-05-23T08:12:54;5.57;;;5.17;;
13415;SDS011;6779;50.150;8.680;2023-05-23T08:15:19;5.80;;;5.30;;
13415;SDS011;6779;50.150;8.680;2023-05-23T08:17:48;6.23;;;5.00;;
13415;SDS011;6779;50.150;8.680;2023-05-23T08:20:13;4.97;;;4.57;;
13415;SDS011;6779;50.150;8.680;2023-05-23T08:22:38;5.83;;;5.30;;
13415;SDS011;6779;50.150;8.680;2023-05-23T08:25:04;5.33;;;4.83;;
13415;SDS011;6779;50.150;8.680;2023-05-23T08:27:30;5.13;;;4.73;;
13415;SDS011;6779;50.150;8.680;2023-05-23T08:29:55;4.83;;;4.40;;
13415;SDS011;6779;50.150;8.680;2023-05-23T08:32:21;4.77;;;4.37;;
13415;SDS011;6779;50.150;8.680;2023-05-23T08:34:46;4.87;;;4.47;;
13415;SDS011;6779;50.150;8.680;2023-05-23T08:37:11;5.30;;;4.03;;
13415;SDS011;6779;50.150;8.680;2023-05-23T08:39:36;5.47;;;4.30;;
13415;SDS011;6779;50.150;8.680;2023-05-23T08:42:02;4.30;;;4.00;;
13415;SDS011;6779;50.150;8.680;2023-05-23T08:44:27;4.63;;;4.23;;
13415;SDS011;6779;50.150;8.680;2023-05-23T08:46:52;4.63;;;4.03;;
13415;SDS011;6779;50.150;8.680;2023-05-23T08:49:18;4.13;;;3.73;;
13415;SDS011;6779;50.150;8.680;2023-05-23T08:51:44;3.97;;;3.63;;
13415;SDS011;6779;50.150;8.680;2023-05-23T08:54:10;4.33;;;3.60;;
13415;SDS011;6779;50.150;8.680;2023-05-23T08:56:37;3.97;;;3.47;;
13415;SDS011;6779;50.150;8.680;2023-05-23T08:59:02;4.00;;;3.60;;
13415;SDS011;6779;50.150;8.680;2023-05-23T09:01:28;4.87;;;3.43;;
13415;SDS011;6779;50.150;8.680;2023-05-23T09:03:54;3.60;;;3.30;;
13415;SDS011;6779;50.150;8.680;2023-05-23T09:06:20;3.60;;;3.30;;
13415;SDS011;6779;50.150;8.680;2023-05-23T09:08:45;3.90;;;3.60;;
13415;SDS011;6779;50.150;8.680;2023-05-23T09:11:11;3.97;;;3.57;;
13415;SDS011;6779;50.150;8.680;2023-05-23T09:13:37;4.43;;;4.03;;
13415;SDS011;6779;50.150;8.680;2023-05-23T09:16:04;4.77;;;4.27;;
13415;SDS011;6779;50.150;8.680;2023-05-23T09:18:34;6.07;;;3.90;;
13415;SDS011;6779;50.150;8.680;2023-05-23T09:21:02;4.27;;;3.90;;
13415;SDS011;6779;50.150;8.680;2023-05-23T09:23:30;4.23;;;3.93;;
13415;SDS011;6779;50.150;8.680;2023-05-23T09:25:56;4.57;;;4.17;;
13415;SDS011;6779;50.150;8.680;2023-05-23T09:28:26;5.03;;;3.87;;
13415;SDS011;6779;50.150;8.680;2023-05-23T09:31:01;3.80;;;3.40;;
13415;SDS011;6779;50.150;8.680;2023-05-23T09:33:48;4.20;;;3.80;;
13415;SDS011;6779;50.150;8.680;2023-05-23T09:36:16;4.00;;;3.70;;
13415;SDS011;6779;50.150;8.680;2023-05-23T09:38:43;3.37;;;3.07;;
13415;SDS011;6779;50.150;8.680;2023-05-23T09:41:10;4.43;;;3.40;;
13415;SDS011;6779;50.150;8.680;2023-05-23T09:43:39;3.93;;;3.30;;
13415;SDS011;6779;50.150;8.680;2023-05-23T09:46:11;4.43;;;3.50;;
13415;SDS011;6779;50.150;8.680;2023-05-23T09:48:37;4.27;;;3.87;;
13415;SDS011;6779;50.150;8.680;2023-05-23T09:51:03;4.67;;;3.90;;
13415;SDS011;6779;50.150;8.680;2023-05-23T09:53:29;4.33;;;4.00;;
13415;SDS011;6779;50.150;8.680;2023-05-23T09:55:54;3.67;;;3.37;;
13415;SDS011;6779;50.150;8.680;2023-05-23T09:58:23;4.73;;;3.43;;
13415;SDS011;6779;50.150;8.680;2023-05-23T10:00:51;3.70;;;3.40;;
13415;SDS011;6779;50.150;8.680;2023-05-23T10:03:18;5.03;;;3.70;;
13415;SDS011;6779;50.150;8.680;2023-05-23T10:05:48;3.70;;;3.40;;
13415;SDS011;6779;50.150;8.680;2023-05-23T10:13:24;4.47;;;3.87;;
13415;SDS011;6779;50.150;8.680;2023-05-23T10:15:51;3.70;;;3.40;;
13415;SDS011;6779;50.150;8.680;2023-05-23T10:18:24;3.77;;;3.43;;
13415;SDS011;6779;50.150;8.680;2023-05-23T10:20:51;3.50;;;3.20;;
13415;SDS011;6779;50.150;8.680;2023-05-23T10:23:18;4.10;;;3.70;;
13415;SDS011;6779;50.150;8.680;2023-05-23T10:25:43;4.47;;;4.03;;
13415;SDS011;6779;50.150;8.680;2023-05-23T10:28:09;4.20;;;3.80;;
13415;SDS011;6779;50.150;8.680;2023-05-23T10:30:36;3.67;;;3.37;;
13415;SDS011;6779;50.150;8.680;2023-05-23T10:33:02;4.47;;;3.23;;
13415;SDS011;6779;50.150;8.680;2023-05-23T10:35:41;4.60;;;3.57;;
13415;SDS011;6779;50.150;8.680;2023-05-23T10:43:39;4.33;;;3.67;;
13415;SDS011;6779;50.150;8.680;2023-05-23T10:46:08;5.20;;;3.90;;
13415;SDS011;6779;50.150;8.680;2023-05-23T10:48:34;3.97;;;3.50;;
13415;SDS011;6779;50.150;8.680;2023-05-23T10:51:04;5.23;;;3.90;;
13415;SDS011;6779;50.150;8.680;2023-05-23T10:53:36;5.47;;;4.57;;
13415;SDS011;6779;50.150;8.680;2023-05-23T10:56:06;4.90;;;3.90;;
13415;SDS011;6779;50.150;8.680;2023-05-23T10:58:32;5.67;;;4.00;;
13415;SDS011;6779;50.150;8.680;2023-05-23T11:01:01;4.63;;;4.23;;
13415;SDS011;6779;50.150;8.680;2023-05-23T11:09:14;6.23;;;4.30;;
13415;SDS011;6779;50.150;8.680;2023-05-23T11:11:53;3.77;;;3.47;;
13415;SDS011;6779;50.150;8.680;2023-05-23T11:14:19;5.83;;;3.83;;
13415;SDS011;6779;50.150;8.680;2023-05-23T11:16:54;4.70;;;4.13;;
13415;SDS011;6779;50.150;8.680;2023-05-23T11:19:20;4.63;;;3.90;;
13415;SDS011;6779;50.150;8.680;2023-05-23T11:21:52;4.37;;;3.97;;
13415;SDS011;6779;50.150;8.680;2023-05-23T11:24:22;4.27;;;3.70;;
13415;SDS011;6779;50.150;8.680;2023-05-23T11:26:51;4.27;;;3.87;;
13415;SDS011;6779;50.150;8.680;2023-05-23T11:29:18;4.03;;;3.63;;
13415;SDS011;6779;50.150;8.680;2023-05-23T11:31:44;5.67;;;3.90;;
13415;SDS011;6779;50.150;8.680;2023-05-23T11:34:09;4.60;;;3.60;;
13415;SDS011;6779;50.150;8.680;2023-05-23T11:36:35;4.33;;;3.17;;
13415;SDS011;6779;50.150;8.680;2023-05-23T11:39:01;4.33;;;3.83;;
13415;SDS011;6779;50.150;8.680;2023-05-23T11:41:28;3.97;;;3.13;;
13415;SDS011;6779;50.150;8.680;2023-05-23T11:43:54;3.53;;;3.23;;
13415;SDS011;6779;50.150;8.680;2023-05-23T11:46:19;3.53;;;3.23;;
13415;SDS011;6779;50.150;8.680;2023-05-23T11:48:45;3.77;;;3.10;;
13415;SDS011;6779;50.150;8.680;2023-05-23T11:51:11;3.00;;;2.70;;
13415;SDS011;6779;50.150;8.680;2023-05-23T11:53:37;3.57;;;2.90;;
13415;SDS011;6779;50.150;8.680;2023-05-23T11:56:02;3.37;;;3.07;;
13415;SDS011;6779;50.150;8.680;2023-05-23T11:58:28;3.10;;;2.63;;
13415;SDS011;6779;50.150;8.680;2023-05-23T12:00:59;3.67;;;2.90;;
13415;SDS011;6779;50.150;8.680;2023-05-23T12:03:26;3.73;;;2.77;;
13415;SDS011;6779;50.150;8.680;2023-05-23T12:05:51;3.53;;;2.73;;
13415;SDS011;6779;50.150;8.680;2023-05-23T12:08:16;2.60;;;2.20;;
13415;SDS011;6779;50.150;8.680;2023-05-23T12:10:48;4.03;;;2.50;;
13415;SDS011;6779;50.150;8.680;2023-05-23T12:13:16;2.60;;;1.90;;
13415;SDS011;6779;50.150;8.680;2023-05-23T12:15:41;1.67;;;1.57;;
13415;SDS011;6779;50.150;8.680;2023-05-23T12:18:07;2.43;;;1.60;;
13415;SDS011;6779;50.150;8.680;2023-05-23T12:20:32;2.13;;;1.60;;
13415;SDS011;6779;50.150;8.680;2023-05-23T12:23:03;2.23;;;1.57;;
13415;SDS011;6779;50.150;8.680;2023-05-23T12:25:36;3.30;;;1.57;;
13415;SDS011;6779;50.150;8.680;2023-05-23T12:28:03;3.23;;;1.60;;
13415;SDS011;6779;50.150;8.680;2023-05-23T12:30:29;1.40;;;1.30;;
13415;SDS011;6779;50.150;8.680;2023-05-23T12:33:06;1.40;;;1.30;;
13415;SDS011;6779;50.150;8.680;2023-05-23T12:35:32;1.50;;;1.40;;
13415;SDS011;6779;50.150;8.680;2023-05-23T12:37:58;2.37;;;1.40;;
13415;SDS011;6779;50.150;8.680;2023-05-23T12:40:23;1.90;;;1.80;;
13415;SDS011;6779;50.150;8.680;2023-05-23T12:42:52;3.40;;;1.83;;
13415;SDS011;6779;50.150;8.680;2023-05-23T12:45:38;1.80;;;1.70;;
13415;SDS011;6779;50.150;8.680;2023-05-23T12:48:04;1.90;;;1.73;;
13415;SDS011;6779;50.150;8.680;2023-05-23T12:50:30;2.10;;;1.83;;
13415;SDS011;6779;50.150;8.680;2023-05-23T12:52:56;2.70;;;1.90;;
13415;SDS011;6779;50.150;8.680;2023-05-23T12:55:22;2.00;;;1.90;;
13415;SDS011;6779;50.150;8.680;2023-05-23T12:57:47;2.20;;;2.00;;
13415;SDS011;6779;50.150;8.680;2023-05-23T13:00:12;2.47;;;2.27;;
13415;SDS011;6779;50.150;8.680;2023-05-23T13:02:38;2.37;;;2.17;;
13415;SDS011;6779;50.150;8.680;2023-05-23T13:05:04;2.23;;;2.03;;
13415;SDS011;6779;50.150;8.680;2023-05-23T13:07:29;2.37;;;2.17;;
13415;SDS011;6779;50.150;8.680;2023-05-23T13:09:55;2.63;;;2.30;;
13415;SDS011;6779;50.150;8.680;2023-05-23T13:12:20;3.63;;;2.40;;
13415;SDS011;6779;50.150;8.680;2023-05-23T13:14:46;3.40;;;2.40;;
13415;SDS011;6779;50.150;8.680;2023-05-23T13:17:12;4.80;;;2.80;;
13415;SDS011;6779;50.150;8.680;2023-05-23T13:19:37;6.10;;;2.83;;
13415;SDS011;6779;50.150;8.680;2023-05-23T13:22:04;3.10;;;2.80;;
13415;SDS011;6779;50.150;8.680;2023-05-23T13:24:36;3.23;;;2.90;;
13415;SDS011;6779;50.150;8.680;2023-05-23T13:27:02;3.40;;;3.10;;
13415;SDS011;6779;50.150;8.680;2023-05-23T13:29:28;3.37;;;3.07;;
13415;SDS011;6779;50.150;8.680;2023-05-23T13:31:54;3.90;;;3.50;;
13415;SDS011;6779;50.150;8.680;2023-05-23T13:34:19;3.57;;;3.27;;
13415;SDS011;6779;50.150;8.680;2023-05-23T13:36:45;4.73;;;3.60;;
13415;SDS011;6779;50.150;8.680;2023-05-23T13:39:10;3.33;;;3.03;;
13415;SDS011;6779;50.150;8.680;2023-05-23T13:41:35;3.90;;;3.50;;
13415;SDS011;6779;50.150;8.680;2023-05-23T13:44:01;4.87;;;3.87;;
13415;SDS011;6779;50.150;8.680;2023-05-23T13:46:26;4.30;;;3.93;;
13415;SDS011;6779;50.150;8.680;2023-05-23T13:48:51;7.67;;;4.30;;
13415;SDS011;6779;50.150;8.680;2023-05-23T13:51:17;5.47;;;4.00;;
13415;SDS011;6779;50.150;8.680;2023-05-23T13:53:42;5.67;;;4.00;;
13415;SDS011;6779;50.150;8.680;2023-05-23T13:56:07;6.13;;;4.23;;
13415;SDS011;6779;50.150;8.680;2023-05-23T13:58:34;6.07;;;4.13;;
13415;SDS011;6779;50.150;8.680;2023-05-23T14:00:59;4.47;;;4.07;;
13415;SDS011;6779;50.150;8.680;2023-05-23T14:03:24;5.23;;;4.20;;
13415;SDS011;6779;50.150;8.680;2023-05-23T14:05:50;5.43;;;4.07;;
13415;SDS011;6779;50.150;8.680;2023-05-23T14:08:15;5.83;;;4.30;;
13415;SDS011;6779;50.150;8.680;2023-05-23T14:10:41;5.07;;;4.47;;
13415;SDS011;6779;50.150;8.680;2023-05-23T14:13:06;5.37;;;4.50;;
13415;SDS011;6779;50.150;8.680;2023-05-23T14:15:32;4.90;;;4.40;;
13415;SDS011;6779;50.150;8.680;2023-05-23T14:17:57;5.23;;;4.73;;
13415;SDS011;6779;50.150;8.680;2023-05-23T14:20:22;5.13;;;4.63;;
13415;SDS011;6779;50.150;8.680;2023-05-23T14:22:48;4.90;;;4.40;;
13415;SDS011;6779;50.150;8.680;2023-05-23T14:25:14;5.70;;;5.10;;
13415;SDS011;6779;50.150;8.680;2023-05-23T14:27:40;5.70;;;5.03;;
13415;SDS011;6779;50.150;8.680;2023-05-23T14:30:06;5.70;;;5.13;;
13415;SDS011;6779;50.150;8.680;2023-05-23T14:32:32;7.13;;;5.07;;
13415;SDS011;6779;50.150;8.680;2023-05-23T14:35:02;6.83;;;5.23;;
13415;SDS011;6779;50.150;8.680;2023-05-23T14:37:28;7.20;;;5.50;;
13415;SDS011;6779;50.150;8.680;2023-05-23T14:39:53;6.97;;;5.43;;
13415;SDS011;6779;50.150;8.680;2023-05-23T14:42:19;6.83;;;5.60;;
13415;SDS011;6779;50.150;8.680;2023-05-23T14:44:44;6.33;;;5.20;;
13415;SDS011;6779;50.150;8.680;2023-05-23T14:47:09;5.40;;;4.90;;
13415;SDS011;6779;50.150;8.680;2023-05-23T14:49:35;6.23;;;5.20;;
13415;SDS011;6779;50.150;8.680;2023-05-23T14:52:00;6.77;;;5.43;;
13415;SDS011;6779;50.150;8.680;2023-05-23T14:54:25;5.90;;;5.30;;
13415;SDS011;6779;50.150;8.680;2023-05-23T14:56:51;5.47;;;4.97;;
13415;SDS011;6779;50.150;8.680;2023-05-23T14:59:16;5.90;;;5.30;;
13415;SDS011;6779;50.150;8.680;2023-05-23T15:01:42;6.83;;;5.30;;